Time;durP1;ratioP1;P1;durP2;ratioP2;P2;SDS_P1;SDS_P2;PMS_P1;PMS_P2;Temp;Humidity;BMP_temperature;BMP_pressure;BME280_temperature;BME280_humidity;BME280_pressure;Samples;Min_cycle;Max_cycle;Signal;HPM_P1;HPM_P2
2023/12/20 00:01:47;;;;;;;0.60;0.60;;;10.70;99.90;;;;;;5091886;28;20189;-77
2023/12/20 00:04:15;;;;;;;0.70;0.70;;;10.80;99.90;;;;;;5082591;28;20193;-77
2023/12/20 00:06:43;;;;;;;1.43;0.87;;;10.80;99.90;;;;;;5073091;28;20220;-77
2023/12/20 00:09:11;;;;;;;0.70;0.70;;;10.80;99.90;;;;;;5064092;28;20261;-75
2023/12/20 00:11:42;;;;;;;2.47;0.70;;;10.70;99.90;;;;;;5068329;28;20261;-77
2023/12/20 00:14:09;;;;;;;0.50;0.50;;;10.70;99.90;;;;;;5091284;28;20192;-77
2023/12/20 00:16:41;;;;;;;0.80;0.80;;;10.70;99.90;;;;;;5067620;28;20207;-77
2023/12/20 00:19:09;;;;;;;0.67;0.67;;;10.70;99.90;;;;;;5087106;28;20193;-77
2023/12/20 00:21:43;;;;;;;0.90;0.90;;;10.70;99.90;;;;;;5091782;28;20513;-76
2023/12/20 00:24:13;;;;;;;0.80;0.80;;;10.70;99.90;;;;;;5084943;28;20534;-77
2023/12/20 00:26:40;;;;;;;0.70;0.70;;;10.70;99.90;;;;;;5070229;28;20284;-77
2023/12/20 00:29:07;;;;;;;1.10;1.00;;;10.70;99.90;;;;;;5086807;28;20741;-77
2023/12/20 00:31:34;;;;;;;0.60;0.60;;;10.70;99.90;;;;;;5061911;28;20696;-80
2023/12/20 00:34:01;;;;;;;0.63;0.63;;;10.70;99.90;;;;;;5073242;28;20208;-79
2023/12/20 00:36:29;;;;;;;0.80;0.80;;;10.70;99.90;;;;;;5074244;28;20195;-76
2023/12/20 00:38:57;;;;;;;0.70;0.70;;;10.70;99.90;;;;;;5072670;28;20277;-77
2023/12/20 00:41:24;;;;;;;2.00;0.60;;;10.70;99.90;;;;;;5078726;28;20211;-77
2023/12/20 00:43:51;;;;;;;0.70;0.60;;;10.60;99.90;;;;;;5088457;28;20216;-77
2023/12/20 00:46:19;;;;;;;0.70;0.70;;;10.60;99.90;;;;;;5069398;28;20311;-79
2023/12/20 00:48:46;;;;;;;0.70;0.70;;;10.60;99.90;;;;;;5083361;28;20597;-78
2023/12/20 00:51:16;;;;;;;0.70;0.70;;;10.50;99.90;;;;;;5073824;28;20233;-78
2023/12/20 00:53:44;;;;;;;0.50;0.50;;;10.50;99.90;;;;;;5074265;28;20210;-78
2023/12/20 00:56:14;;;;;;;0.60;0.60;;;10.50;99.90;;;;;;5067097;28;20199;-79
2023/12/20 00:58:41;;;;;;;0.50;0.50;;;10.50;99.90;;;;;;5078133;28;20204;-79
2023/12/20 01:01:08;;;;;;;0.40;0.40;;;10.50;99.90;;;;;;5086714;28;20650;-80
2023/12/20 01:03:34;;;;;;;0.50;0.50;;;10.50;99.90;;;;;;5087179;28;20265;-80
2023/12/20 01:06:01;;;;;;;0.43;0.43;;;10.50;99.90;;;;;;5092060;28;20188;-81
2023/12/20 01:08:29;;;;;;;0.70;0.70;;;10.50;99.90;;;;;;5079157;28;20222;-77
2023/12/20 01:10:57;;;;;;;0.70;0.70;;;10.50;99.90;;;;;;5063530;28;20209;-77
2023/12/20 01:13:24;;;;;;;0.60;0.60;;;10.50;99.90;;;;;;5072568;28;20199;-76
2023/12/20 01:15:51;;;;;;;0.63;0.63;;;10.40;99.90;;;;;;5060776;28;20624;-77
2023/12/20 01:18:18;;;;;;;0.77;0.77;;;10.50;99.90;;;;;;5057081;28;20196;-77
2023/12/20 01:20:48;;;;;;;0.63;0.63;;;10.50;99.90;;;;;;5072686;28;20303;-77
2023/12/20 01:23:20;;;;;;;1.53;0.83;;;10.40;99.90;;;;;;5073797;28;20214;-77
2023/12/20 01:25:49;;;;;;;0.70;0.70;;;10.40;99.90;;;;;;5068495;28;20226;-77
2023/12/20 01:28:18;;;;;;;0.80;0.60;;;10.40;99.90;;;;;;5092348;28;20263;-78
2023/12/20 01:30:45;;;;;;;0.60;0.50;;;10.40;99.90;;;;;;5061047;28;20307;-77
2023/12/20 01:33:15;;;;;;;0.40;0.40;;;10.30;99.90;;;;;;5091155;28;20293;-77
2023/12/20 01:35:42;;;;;;;0.60;0.40;;;10.30;99.90;;;;;;5065941;28;20205;-77
2023/12/20 01:38:09;;;;;;;0.37;0.37;;;10.20;99.90;;;;;;5087538;28;20237;-79
2023/12/20 01:40:36;;;;;;;0.40;0.40;;;10.20;99.90;;;;;;5085673;28;20202;-79
2023/12/20 01:43:08;;;;;;;0.80;0.50;;;10.20;99.90;;;;;;5080091;28;20251;-78
2023/12/20 01:45:36;;;;;;;0.30;0.30;;;10.10;99.90;;;;;;5076907;28;20193;-78
2023/12/20 01:48:10;;;;;;;0.43;0.43;;;10.20;99.90;;;;;;5083373;28;20201;-79
2023/12/20 01:50:38;;;;;;;0.30;0.30;;;10.10;99.90;;;;;;5081602;28;20414;-79
2023/12/20 01:53:07;;;;;;;0.40;0.40;;;10.20;99.90;;;;;;5082570;28;20539;-78
2023/12/20 01:55:37;;;;;;;0.47;0.47;;;10.10;99.90;;;;;;5095859;28;20197;-79
2023/12/20 01:58:05;;;;;;;0.40;0.40;;;10.10;99.90;;;;;;5084836;28;20194;-79
2023/12/20 02:00:32;;;;;;;0.50;0.50;;;10.10;99.90;;;;;;5078993;28;20202;-79
2023/12/20 02:03:05;;;;;;;0.40;0.40;;;10.10;99.90;;;;;;5068090;28;20629;-80
2023/12/20 02:05:33;;;;;;;0.80;0.50;;;10.00;99.90;;;;;;5089515;28;20193;-78
2023/12/20 02:08:00;;;;;;;0.90;0.60;;;10.00;99.90;;;;;;5088939;28;20522;-79
2023/12/20 02:10:28;;;;;;;1.80;0.50;;;10.00;99.90;;;;;;5065732;28;20291;-77
2023/12/20 02:12:56;;;;;;;0.73;0.60;;;10.00;99.90;;;;;;5072932;28;20208;-77
2023/12/20 02:15:23;;;;;;;0.53;0.40;;;10.00;99.90;;;;;;5070774;28;20207;-75
2023/12/20 02:17:50;;;;;;;0.40;0.40;;;10.00;99.90;;;;;;5067089;28;20202;-76
2023/12/20 02:20:19;;;;;;;0.40;0.40;;;10.00;99.90;;;;;;5087066;28;20267;-76
2023/12/20 02:22:48;;;;;;;0.33;0.33;;;10.00;99.90;;;;;;5060359;28;20284;-76
2023/12/20 02:25:15;;;;;;;0.80;0.50;;;9.90;99.90;;;;;;5084807;28;20215;-75
2023/12/20 02:27:42;;;;;;;0.40;0.40;;;9.90;99.90;;;;;;5063017;28;20210;-75
2023/12/20 02:30:11;;;;;;;1.67;0.63;;;9.90;99.90;;;;;;5067610;28;20207;-76
2023/12/20 02:32:38;;;;;;;1.30;0.50;;;9.80;99.90;;;;;;5084663;28;20212;-75
2023/12/20 02:35:10;;;;;;;1.83;0.70;;;9.80;99.90;;;;;;5088494;28;20196;-75
2023/12/20 02:37:37;;;;;;;0.90;0.63;;;9.80;99.90;;;;;;5091211;28;20189;-76
2023/12/20 02:40:07;;;;;;;2.10;0.70;;;9.80;99.90;;;;;;5079415;28;20202;-78
2023/12/20 02:42:35;;;;;;;1.97;0.70;;;9.70;99.90;;;;;;5070078;28;20218;-78
2023/12/20 02:45:05;;;;;;;2.53;0.83;;;9.70;99.90;;;;;;5061240;28;20289;-77
2023/12/20 02:47:32;;;;;;;1.27;0.70;;;10.60;99.90;;;;;;5083698;28;20347;-77
2023/12/20 02:49:59;;;;;;;5.07;0.83;;;9.60;99.90;;;;;;5085364;28;20235;-77
2023/12/20 02:52:28;;;;;;;2.50;0.50;;;9.60;99.90;;;;;;5068726;28;20204;-77
2023/12/20 02:55:01;;;;;;;0.57;0.57;;;9.60;99.90;;;;;;5080271;28;20663;-77
2023/12/20 02:57:29;;;;;;;2.87;0.83;;;9.50;99.90;;;;;;5067568;28;20238;-76
2023/12/20 02:59:56;;;;;;;2.20;0.63;;;9.50;99.90;;;;;;5069187;28;20210;-78
2023/12/20 03:02:24;;;;;;;1.13;0.60;;;9.50;99.90;;;;;;5079354;28;20272;-77
2023/12/20 03:04:51;;;;;;;2.93;0.83;;;9.50;99.90;;;;;;5080698;28;20210;-80
2023/12/20 03:07:18;;;;;;;1.97;0.70;;;9.50;99.90;;;;;;5086115;28;20209;-78
2023/12/20 03:09:48;;;;;;;2.10;1.00;;;9.50;99.90;;;;;;5089797;28;20541;-78
2023/12/20 03:12:15;;;;;;;3.00;0.83;;;9.50;99.90;;;;;;5088092;28;20221;-78
2023/12/20 03:14:47;;;;;;;5.57;1.13;;;9.40;99.90;;;;;;5078532;28;20195;-78
2023/12/20 03:17:14;;;;;;;2.27;0.87;;;9.40;99.90;;;;;;5070350;28;20197;-79
2023/12/20 03:19:43;;;;;;;3.43;0.80;;;9.40;99.90;;;;;;5078741;28;20204;-79
2023/12/20 03:22:10;;;;;;;2.40;0.90;;;9.40;99.90;;;;;;5081346;28;20541;-78
2023/12/20 03:24:39;;;;;;;0.80;0.60;;;9.40;99.90;;;;;;5068403;28;20200;-79
2023/12/20 03:27:06;;;;;;;2.03;1.00;;;9.30;99.90;;;;;;5064158;28;20635;-78
2023/12/20 03:29:39;;;;;;;1.83;0.80;;;9.30;99.90;;;;;;5083235;28;20199;-78
2023/12/20 03:32:09;;;;;;;1.67;0.90;;;9.30;99.90;;;;;;5068036;28;20205;-78
2023/12/20 03:34:40;;;;;;;1.03;0.90;;;9.30;99.90;;;;;;5069193;28;20216;-79
2023/12/20 03:37:07;;;;;;;1.13;0.80;;;9.40;99.90;;;;;;5084351;28;20196;-79
2023/12/20 03:39:40;;;;;;;7.00;1.10;;;9.30;99.90;;;;;;5082853;28;20196;-79
2023/12/20 03:42:07;;;;;;;2.13;0.80;;;9.30;99.90;;;;;;5088768;28;20192;-76
2023/12/20 03:44:34;;;;;;;3.80;1.00;;;9.30;99.90;;;;;;5089717;28;20199;-77
2023/12/20 03:47:02;;;;;;;2.77;0.93;;;9.40;99.90;;;;;;5068123;28;20305;-77
2023/12/20 03:49:30;;;;;;;1.80;0.70;;;9.40;99.90;;;;;;5065147;28;20566;-77
2023/12/20 03:51:57;;;;;;;1.00;0.70;;;9.40;99.90;;;;;;5061624;28;20208;-78
2023/12/20 03:54:25;;;;;;;2.10;0.83;;;9.40;99.90;;;;;;5084024;28;20204;-78
2023/12/20 03:56:53;;;;;;;1.43;0.70;;;9.40;99.90;;;;;;5060983;28;20200;-77
2023/12/20 03:59:21;;;;;;;1.37;0.90;;;9.40;99.90;;;;;;5074655;28;20270;-77
2023/12/20 04:01:48;;;;;;;3.87;1.27;;;9.40;99.90;;;;;;5082474;28;20235;-76
2023/12/20 04:04:15;;;;;;;2.33;0.90;;;9.40;99.90;;;;;;5085569;28;20331;-77
2023/12/20 04:06:52;;;;;;;2.60;1.20;;;9.40;99.90;;;;;;5070334;28;20645;-76
2023/12/20 04:09:19;;;;;;;1.77;0.97;;;9.40;99.90;;;;;;5088709;28;20200;-76
2023/12/20 04:11:49;;;;;;;3.03;1.13;;;9.40;99.90;;;;;;5076463;28;20198;-77
2023/12/20 04:14:28;;;;;;;1.00;0.73;;;9.40;99.90;;;;;;5089085;28;20201;-76
2023/12/20 04:16:55;;;;;;;1.70;1.00;;;9.40;99.90;;;;;;5062795;28;20557;-75
2023/12/20 04:19:22;;;;;;;4.27;1.30;;;9.40;99.90;;;;;;5062121;28;20553;-75
2023/12/20 04:21:51;;;;;;;1.73;1.10;;;9.50;99.90;;;;;;5066615;28;20208;-75
2023/12/20 04:24:20;;;;;;;1.13;0.90;;;9.40;99.90;;;;;;5078463;28;20223;-76
2023/12/20 04:26:48;;;;;;;2.50;1.10;;;9.40;99.90;;;;;;5082655;28;20197;-76
2023/12/20 04:29:17;;;;;;;2.17;1.10;;;9.40;99.90;;;;;;5086933;28;20192;-76
2023/12/20 04:31:46;;;;;;;1.47;0.83;;;9.30;99.90;;;;;;5066995;28;20215;-76
2023/12/20 04:34:13;;;;;;;4.23;0.80;;;9.40;99.90;;;;;;5078109;28;20204;-76
2023/12/20 04:36:44;;;;;;;1.40;0.73;;;9.40;99.90;;;;;;5078674;28;20593;-75
2023/12/20 04:39:13;;;;;;;0.97;0.80;;;9.40;99.90;;;;;;5079118;28;20190;-79
2023/12/20 04:41:40;;;;;;;2.63;0.97;;;9.30;99.90;;;;;;5078821;28;20189;-79
2023/12/20 04:44:10;;;;;;;4.33;1.03;;;9.30;99.90;;;;;;5067023;28;20210;-79
2023/12/20 04:46:37;;;;;;;1.17;0.70;;;9.30;99.90;;;;;;5087197;28;20223;-78
2023/12/20 04:49:04;;;;;;;2.77;1.17;;;9.30;99.90;;;;;;5078329;28;20707;-79
2023/12/20 04:51:34;;;;;;;2.97;0.90;;;9.30;99.90;;;;;;5088877;28;20193;-79
2023/12/20 04:54:01;;;;;;;4.83;1.23;;;9.20;99.90;;;;;;5093316;28;20261;-76
2023/12/20 04:56:30;;;;;;;3.27;1.13;;;9.20;99.90;;;;;;5072611;28;20298;-76
2023/12/20 04:59:01;;;;;;;3.70;1.23;;;9.20;99.90;;;;;;5090404;28;20662;-75
2023/12/20 05:01:31;;;;;;;2.50;1.10;;;9.20;99.90;;;;;;5090485;28;20270;-75
2023/12/20 05:03:58;;;;;;;2.60;1.37;;;9.20;99.90;;;;;;5079949;28;20220;-75
2023/12/20 05:06:25;;;;;;;3.47;1.17;;;9.20;99.90;;;;;;5074534;28;20194;-76
2023/12/20 05:08:52;;;;;;;1.37;1.03;;;9.20;99.90;;;;;;5082941;28;20262;-76
2023/12/20 05:11:20;;;;;;;2.53;1.30;;;9.10;99.90;;;;;;5078674;28;20231;-76
2023/12/20 05:13:48;;;;;;;2.47;1.10;;;9.10;99.90;;;;;;5087506;28;20283;-76
2023/12/20 05:16:17;;;;;;;1.77;1.30;;;9.90;99.90;;;;;;5079119;28;20202;-76
2023/12/20 05:18:49;;;;;;;4.60;1.20;;;9.10;99.90;;;;;;5071351;28;20623;-76
2023/12/20 05:21:16;;;;;;;1.23;1.10;;;9.10;99.90;;;;;;5066022;28;20209;-79
2023/12/20 05:23:43;;;;;;;1.20;1.10;;;9.10;99.90;;;;;;5071713;28;21201;-79
2023/12/20 05:26:12;;;;;;;2.13;0.80;;;9.10;99.90;;;;;;5071604;28;20207;-78
2023/12/20 05:28:42;;;;;;;0.90;0.90;;;9.00;99.90;;;;;;5089140;28;20318;-77
2023/12/20 05:31:11;;;;;;;2.03;1.00;;;9.00;99.90;;;;;;5070416;28;20192;-77
2023/12/20 05:33:41;;;;;;;2.10;1.13;;;9.00;99.90;;;;;;5087268;28;20638;-76
2023/12/20 05:36:11;;;;;;;3.70;1.30;;;9.00;99.90;;;;;;5072103;28;20202;-75
2023/12/20 05:38:41;;;;;;;1.47;1.00;;;9.00;99.90;;;;;;5058450;28;20286;-78
2023/12/20 05:41:11;;;;;;;1.67;1.20;;;9.00;99.90;;;;;;5085045;28;20220;-79
2023/12/20 05:43:41;;;;;;;3.17;1.47;;;9.00;99.90;;;;;;5082571;28;20279;-79
2023/12/20 05:46:12;;;;;;;3.87;1.50;;;9.00;99.90;;;;;;5070049;28;20265;-79
2023/12/20 05:48:39;;;;;;;5.07;1.50;;;8.90;99.90;;;;;;5064860;28;20294;-77
2023/12/20 05:51:06;;;;;;;3.47;1.70;;;8.90;99.90;;;;;;5064285;28;20601;-76
2023/12/20 05:53:33;;;;;;;5.10;1.53;;;8.90;99.90;;;;;;5072879;28;20273;-77
2023/12/20 05:56:00;;;;;;;1.73;1.20;;;8.90;99.90;;;;;;5056987;28;20292;-77
2023/12/20 05:58:29;;;;;;;3.27;1.80;;;8.90;99.90;;;;;;5082495;28;20203;-79
2023/12/20 06:00:59;;;;;;;1.67;1.20;;;8.90;99.90;;;;;;5070418;28;20266;-79
2023/12/20 06:03:27;;;;;;;3.00;1.40;;;8.90;99.90;;;;;;5059849;28;20282;-79
2023/12/20 06:05:57;;;;;;;2.57;1.50;;;8.90;99.90;;;;;;5081920;28;20199;-79
2023/12/20 06:08:26;;;;;;;2.13;1.50;;;8.90;99.90;;;;;;5081589;28;20706;-74
2023/12/20 06:10:53;;;;;;;2.03;1.50;;;8.80;99.90;;;;;;5058669;28;20270;-74
2023/12/20 06:13:20;;;;;;;3.87;1.60;;;8.80;99.90;;;;;;5069053;28;20230;-78
2023/12/20 06:15:47;;;;;;;4.00;1.50;;;8.80;99.90;;;;;;5090344;28;20211;-78
2023/12/20 06:18:14;;;;;;;2.07;1.53;;;8.80;99.90;;;;;;5066492;28;20231;-77
2023/12/20 06:20:43;;;;;;;2.57;1.20;;;8.80;99.90;;;;;;5068421;28;20200;-76
2023/12/20 06:23:10;;;;;;;1.97;1.23;;;8.80;99.90;;;;;;5080500;28;20257;-79
2023/12/20 06:25:37;;;;;;;7.33;2.27;;;8.70;99.90;;;;;;5066832;28;20576;-78
2023/12/20 06:28:05;;;;;;;4.03;1.90;;;8.70;99.90;;;;;;5058868;28;20642;-79
2023/12/20 06:30:40;;;;;;;2.70;2.00;;;8.70;99.90;;;;;;5059250;28;20221;-79
2023/12/20 06:33:09;;;;;;;4.70;1.83;;;8.70;99.90;;;;;;5064865;28;20202;-79
2023/12/20 06:35:39;;;;;;;7.30;1.70;;;8.70;99.90;;;;;;5087381;28;20323;-81
2023/12/20 06:38:11;;;;;;;2.47;1.60;;;8.70;99.90;;;;;;5087475;28;20191;-81
2023/12/20 06:40:40;;;;;;;2.73;1.50;;;8.70;99.90;;;;;;5086993;28;20191;-81
2023/12/20 06:43:08;;;;;;;1.93;1.57;;;8.70;99.90;;;;;;5061648;28;20207;-77
2023/12/20 06:45:35;;;;;;;6.70;1.70;;;8.70;99.90;;;;;;5070047;28;20642;-78
2023/12/20 06:48:02;;;;;;;2.17;1.30;;;8.70;99.90;;;;;;5088337;28;20216;-78
2023/12/20 06:50:32;;;;;;;6.17;1.73;;;8.70;99.90;;;;;;5089995;28;20231;-79
2023/12/20 06:52:59;;;;;;;3.67;1.80;;;8.70;99.90;;;;;;5089862;28;20298;-78
2023/12/20 06:55:27;;;;;;;4.37;1.60;;;8.70;99.90;;;;;;5089911;28;20555;-78
2023/12/20 06:57:57;;;;;;;1.73;1.40;;;8.70;99.90;;;;;;5082455;28;20208;-78
2023/12/20 07:00:24;;;;;;;2.50;1.50;;;8.70;99.90;;;;;;5083167;28;20189;-78
2023/12/20 07:02:52;;;;;;;2.43;1.60;;;8.70;99.90;;;;;;5086049;28;20700;-78
2023/12/20 07:05:22;;;;;;;3.37;1.50;;;8.70;99.90;;;;;;5089304;28;20623;-79
2023/12/20 07:07:51;;;;;;;2.70;1.67;;;8.70;99.90;;;;;;5071556;28;20207;-79
2023/12/20 07:10:19;;;;;;;3.60;2.03;;;8.70;99.90;;;;;;5071881;28;20544;-79
2023/12/20 07:12:48;;;;;;;3.33;2.00;;;8.70;99.90;;;;;;5071763;28;20231;-78
2023/12/20 07:15:18;;;;;;;5.50;2.27;;;8.80;99.90;;;;;;5086560;28;20225;-78
2023/12/20 07:17:52;;;;;;;5.57;1.90;;;8.80;99.90;;;;;;5070960;28;20200;-79
2023/12/20 07:20:19;;;;;;;4.03;2.00;;;8.70;99.90;;;;;;5088960;28;20200;-79
2023/12/20 07:22:46;;;;;;;3.80;1.77;;;8.70;99.90;;;;;;5071129;28;20288;-79
2023/12/20 07:25:15;;;;;;;6.97;2.50;;;8.70;99.90;;;;;;5062724;28;20257;-78
2023/12/20 07:27:42;;;;;;;4.57;2.00;;;8.60;99.90;;;;;;5084550;28;20681;-78
2023/12/20 07:30:12;;;;;;;4.50;2.00;;;8.60;99.90;;;;;;5063490;28;20230;-79
2023/12/20 07:32:43;;;;;;;4.47;2.40;;;8.50;99.90;;;;;;5070485;28;20527;-79
2023/12/20 07:35:10;;;;;;;2.80;1.70;;;8.50;99.90;;;;;;5082234;28;20206;-79
2023/12/20 07:37:37;;;;;;;4.70;2.17;;;8.40;99.90;;;;;;5071279;28;20201;-78
2023/12/20 07:40:05;;;;;;;9.83;2.90;;;8.40;99.90;;;;;;5073744;28;20199;-78
2023/12/20 07:42:32;;;;;;;6.33;2.00;;;8.40;99.90;;;;;;5079437;28;20252;-78
2023/12/20 07:45:00;;;;;;;4.97;2.00;;;8.40;99.90;;;;;;5061285;28;20228;-78
2023/12/20 07:47:28;;;;;;;3.50;1.53;;;8.40;99.90;;;;;;5087763;28;20202;-78
2023/12/20 07:49:55;;;;;;;6.50;1.60;;;8.40;99.90;;;;;;5071192;28;20604;-78
2023/12/20 07:52:22;;;;;;;5.00;1.50;;;8.40;99.90;;;;;;5085165;28;20217;-78
2023/12/20 07:54:50;;;;;;;7.00;2.10;;;8.40;99.90;;;;;;5063796;28;20242;-78
2023/12/20 07:57:17;;;;;;;3.27;1.70;;;8.40;99.90;;;;;;5089349;28;20297;-78
2023/12/20 07:59:44;;;;;;;2.47;1.87;;;8.40;99.90;;;;;;5087376;28;20239;-77
2023/12/20 08:02:11;;;;;;;3.87;1.63;;;8.40;99.90;;;;;;5065137;28;20296;-78
2023/12/20 08:04:42;;;;;;;2.63;1.40;;;8.40;99.90;;;;;;5056242;28;20609;-78
2023/12/20 08:07:12;;;;;;;2.10;1.50;;;8.40;99.90;;;;;;5084889;28;20223;-77
2023/12/20 08:09:43;;;;;;;4.90;1.53;;;8.30;99.90;;;;;;5063516;28;20577;-76
2023/12/20 08:12:12;;;;;;;3.97;1.90;;;8.20;99.90;;;;;;5089124;28;20265;-78
2023/12/20 08:14:41;;;;;;;8.33;2.00;;;8.20;99.90;;;;;;5057391;28;20203;-78
2023/12/20 08:17:08;;;;;;;9.90;2.03;;;8.30;99.90;;;;;;5075487;28;20282;-77
2023/12/20 08:19:39;;;;;;;3.47;1.70;;;8.30;99.90;;;;;;5081261;28;20202;-77
2023/12/20 08:22:06;;;;;;;10.53;2.13;;;8.30;99.90;;;;;;5086457;28;20196;-78
2023/12/20 08:24:33;;;;;;;3.57;1.80;;;8.40;99.90;;;;;;5091018;28;20206;-78
2023/12/20 08:27:00;;;;;;;2.90;1.37;;;8.50;99.90;;;;;;5068466;28;20236;-78
2023/12/20 08:29:30;;;;;;;3.90;1.50;;;8.70;99.90;;;;;;5072301;28;20261;-79
2023/12/20 08:31:58;;;;;;;3.47;1.30;;;8.90;99.90;;;;;;5086648;28;20211;-78
2023/12/20 08:34:28;;;;;;;5.00;1.60;;;9.00;99.90;;;;;;5072932;28;20234;-78
2023/12/20 08:36:56;;;;;;;3.93;1.60;;;9.00;99.90;;;;;;5070163;28;20534;-78
2023/12/20 08:39:26;;;;;;;4.40;1.40;;;9.00;99.90;;;;;;5085717;28;20188;-78
2023/12/20 08:41:53;;;;;;;3.53;1.20;;;9.30;99.90;;;;;;5068615;28;20575;-76
2023/12/20 08:44:23;;;;;;;3.27;1.27;;;9.40;99.90;;;;;;5091847;28;20234;-78
2023/12/20 08:46:56;;;;;;;4.73;1.50;;;9.60;99.90;;;;;;5092072;28;20188;-79
2023/12/20 08:49:25;;;;;;;5.40;1.20;;;10.00;99.90;;;;;;5070861;28;20239;-79
2023/12/20 08:51:52;;;;;;;3.63;1.13;;;10.40;99.90;;;;;;5090749;28;20278;-78
2023/12/20 08:54:21;;;;;;;2.70;1.13;;;10.30;99.90;;;;;;5075005;28;20549;-78
2023/12/20 08:56:51;;;;;;;4.60;1.70;;;10.40;99.90;;;;;;5087046;28;20201;-78
2023/12/20 08:59:21;;;;;;;3.03;1.40;;;10.40;99.90;;;;;;5069201;28;20522;-78
2023/12/20 09:01:53;;;;;;;4.00;1.20;;;10.40;99.90;;;;;;5081430;28;20687;-78
2023/12/20 09:04:27;;;;;;;2.60;1.03;;;10.30;99.90;;;;;;5063851;28;20212;-79
2023/12/20 09:06:54;;;;;;;3.53;1.30;;;10.40;99.90;;;;;;5088320;28;20196;-78
2023/12/20 09:09:22;;;;;;;4.63;1.27;;;10.40;99.90;;;;;;5091797;28;20784;-78
2023/12/20 09:11:51;;;;;;;4.40;1.50;;;10.30;99.90;;;;;;5081282;28;20191;-78
2023/12/20 09:14:18;;;;;;;4.10;1.50;;;10.20;99.90;;;;;;5080781;28;20293;-79
2023/12/20 09:16:47;;;;;;;2.53;1.63;;;10.20;99.90;;;;;;5099546;28;20223;-79
2023/12/20 09:19:15;;;;;;;4.27;1.40;;;10.10;99.90;;;;;;5092229;28;20571;-78
2023/12/20 09:21:42;;;;;;;3.87;1.53;;;10.10;99.90;;;;;;5099122;28;20200;-78
2023/12/20 09:24:09;;;;;;;4.60;1.60;;;10.10;99.90;;;;;;5107659;27;20643;-78
2023/12/20 09:26:39;;;;;;;2.93;1.33;;;10.00;99.90;;;;;;5093955;28;20296;-78
2023/12/20 09:29:07;;;;;;;2.90;1.37;;;9.90;99.90;;;;;;5097382;28;20618;-77
2023/12/20 09:31:34;;;;;;;3.67;1.57;;;9.90;99.90;;;;;;5094462;28;20206;-79
2023/12/20 09:34:02;;;;;;;2.73;1.47;;;9.80;99.90;;;;;;5119338;27;20198;-79
2023/12/20 09:36:31;;;;;;;4.10;1.80;;;9.70;99.90;;;;;;5113149;28;20254;-78
2023/12/20 09:38:58;;;;;;;1.43;1.27;;;9.90;99.90;;;;;;5092691;28;20252;-79
2023/12/20 09:41:27;;;;;;;3.77;1.50;;;10.20;99.90;;;;;;5108833;28;20243;-79
2023/12/20 09:43:57;;;;;;;2.00;1.20;;;10.20;99.90;;;;;;5095569;28;20234;-78
2023/12/20 09:46:29;;;;;;;3.83;1.73;;;10.30;99.90;;;;;;5091620;28;20670;-79
2023/12/20 09:48:57;;;;;;;3.60;1.43;;;10.60;99.90;;;;;;5085690;28;20221;-78
2023/12/20 09:51:25;;;;;;;1.90;1.33;;;10.40;99.90;;;;;;5109051;28;20194;-78
2023/12/20 09:53:55;;;;;;;2.93;1.63;;;10.30;99.90;;;;;;5113221;27;20261;-78
2023/12/20 09:56:22;;;;;;;6.37;1.90;;;10.20;99.90;;;;;;5088139;28;20623;-78
2023/12/20 09:58:50;;;;;;;3.90;1.83;;;10.20;99.90;;;;;;5095707;28;20246;-78
2023/12/20 10:01:21;;;;;;;3.90;1.43;;;10.10;99.90;;;;;;5106670;28;20216;-78
2023/12/20 10:03:48;;;;;;;6.73;1.80;;;10.10;99.90;;;;;;5112714;27;20197;-79
2023/12/20 10:06:24;;;;;;;3.57;1.50;;;10.10;99.90;;;;;;5106129;28;20232;-78
2023/12/20 10:08:51;;;;;;;5.47;1.50;;;10.10;99.90;;;;;;5087083;28;20195;-79
2023/12/20 10:11:19;;;;;;;3.20;1.40;;;10.10;99.90;;;;;;5111651;28;20202;-77
2023/12/20 10:13:49;;;;;;;3.47;1.70;;;10.10;99.90;;;;;;5110214;27;20301;-79
2023/12/20 10:16:16;;;;;;;5.90;2.37;;;10.20;99.90;;;;;;5102696;28;20201;-78
2023/12/20 10:18:46;;;;;;;6.27;1.70;;;10.10;99.90;;;;;;5093976;28;20677;-78
2023/12/20 10:21:16;;;;;;;2.90;1.47;;;10.10;99.90;;;;;;5105744;28;20563;-78
2023/12/20 10:23:43;;;;;;;5.23;1.80;;;10.00;99.90;;;;;;5111207;27;20657;-78
2023/12/20 10:26:12;;;;;;;3.03;1.67;;;10.00;99.90;;;;;;5079442;28;20630;-79
2023/12/20 10:28:39;;;;;;;6.03;2.10;;;9.90;99.90;;;;;;5104892;28;20203;-78
2023/12/20 10:31:16;;;;;;;2.30;1.20;;;9.80;99.90;;;;;;5094779;28;20223;-78
2023/12/20 10:33:46;;;;;;;2.70;1.60;;;9.70;99.90;;;;;;5102033;27;20196;-79
2023/12/20 10:36:13;;;;;;;4.17;1.93;;;9.70;99.90;;;;;;5108801;27;20187;-78
2023/12/20 10:38:45;;;;;;;6.00;2.00;;;9.60;99.90;;;;;;5113213;27;20199;-78
2023/12/20 10:41:13;;;;;;;3.70;1.60;;;9.50;99.90;;;;;;5092115;28;20255;-78
2023/12/20 10:43:40;;;;;;;3.67;1.70;;;9.50;99.90;;;;;;5084701;27;20703;-78
2023/12/20 10:46:11;;;;;;;5.93;1.70;;;9.40;99.90;;;;;;5107273;27;20226;-79
2023/12/20 10:48:40;;;;;;;3.77;1.47;;;9.40;99.90;;;;;;5101401;28;20204;-78
2023/12/20 10:51:10;;;;;;;8.73;1.70;;;9.30;99.90;;;;;;5106041;28;20310;-78
2023/12/20 10:53:39;;;;;;;4.80;2.00;;;9.30;99.90;;;;;;5105551;28;20198;-78
2023/12/20 10:56:16;;;;;;;2.93;1.67;;;9.30;99.90;;;;;;5091452;28;20649;-78
2023/12/20 10:58:44;;;;;;;7.27;2.30;;;9.30;99.90;;;;;;5112018;27;20225;-79
2023/12/20 11:01:14;;;;;;;3.40;1.80;;;9.20;99.90;;;;;;5108056;27;20283;-78
2023/12/20 11:03:46;;;;;;;6.67;2.00;;;9.20;99.90;;;;;;5088763;28;20635;-79
2023/12/20 11:06:27;;;;;;;5.17;1.73;;;9.20;99.90;;;;;;5097224;28;20207;-78
2023/12/20 11:09:12;;;;;;;6.43;2.10;;;9.10;99.90;;;;;;5092749;28;20199;-78
2023/12/20 11:11:52;;;;;;;5.87;2.13;;;9.10;99.90;;;;;;5102419;28;20660;-78
2023/12/20 11:14:24;;;;;;;5.63;1.87;;;9.10;99.90;;;;;;5111038;27;20252;-78
2023/12/20 11:17:07;;;;;;;5.00;2.10;;;9.10;99.90;;;;;;5092402;28;20208;-78
2023/12/20 11:19:36;;;;;;;6.23;2.27;;;9.10;99.90;;;;;;5103578;28;20609;-78
2023/12/20 11:22:07;;;;;;;5.70;2.20;;;9.10;99.90;;;;;;5075521;28;20200;-78
2023/12/20 11:24:37;;;;;;;4.67;1.87;;;9.00;99.90;;;;;;5091622;28;20634;-77
2023/12/20 11:27:06;;;;;;;4.13;2.10;;;9.00;99.90;;;;;;5089766;28;20663;-79
2023/12/20 11:29:35;;;;;;;5.30;2.30;;;9.00;99.90;;;;;;5102278;27;20230;-78
2023/12/20 11:32:18;;;;;;;4.87;2.30;;;9.00;99.90;;;;;;5083310;28;20573;-78
2023/12/20 11:34:46;;;;;;;4.53;1.93;;;9.00;99.90;;;;;;5106267;28;20658;-79
2023/12/20 11:37:22;;;;;;;4.97;2.10;;;9.00;99.90;;;;;;5093692;28;20294;-78
2023/12/20 11:39:57;;;;;;;8.47;2.27;;;9.00;99.90;;;;;;5107227;28;20221;-78
2023/12/20 11:42:24;;;;;;;7.43;2.40;;;9.00;99.90;;;;;;5105245;28;20202;-79
2023/12/20 11:44:51;;;;;;;3.50;2.10;;;9.00;99.90;;;;;;5089884;28;20277;-78
2023/12/20 11:47:29;;;;;;;3.53;2.17;;;9.00;99.90;;;;;;5108572;28;20840;-78
2023/12/20 11:49:57;;;;;;;3.77;2.00;;;9.00;99.90;;;;;;5096289;28;20238;-77
2023/12/20 11:52:25;;;;;;;6.40;2.37;;;9.00;99.90;;;;;;5110880;28;20197;-77
2023/12/20 11:54:52;;;;;;;3.77;2.17;;;9.00;99.90;;;;;;5101310;28;20185;-77
2023/12/20 11:57:20;;;;;;;6.03;1.90;;;9.00;99.90;;;;;;5088968;28;20192;-77
2023/12/20 11:59:48;;;;;;;4.33;2.30;;;9.00;99.90;;;;;;5103167;27;20195;-77
2023/12/20 12:02:15;;;;;;;4.07;2.40;;;9.10;99.90;;;;;;5109354;28;20275;-78
2023/12/20 12:04:42;;;;;;;7.40;2.17;;;9.10;99.90;;;;;;5112840;27;20728;-78
2023/12/20 12:07:10;;;;;;;3.97;2.10;;;9.10;99.90;;;;;;5079049;28;20211;-79
2023/12/20 12:09:38;;;;;;;3.77;2.40;;;9.10;99.90;;;;;;5101739;27;20240;-78
2023/12/20 12:12:06;;;;;;;2.77;1.80;;;9.10;99.90;;;;;;5108441;27;20197;-78
2023/12/20 12:14:36;;;;;;;4.87;2.07;;;9.20;99.90;;;;;;5098275;27;20218;-78
2023/12/20 12:17:04;;;;;;;3.10;1.87;;;9.20;99.90;;;;;;5106812;28;20305;-78
2023/12/20 12:19:35;;;;;;;2.50;1.80;;;9.20;99.90;;;;;;5110505;28;20282;-78
2023/12/20 12:22:10;;;;;;;5.10;2.00;;;9.20;99.90;;;;;;5084955;28;20200;-78
2023/12/20 12:24:42;;;;;;;4.47;1.70;;;9.20;99.90;;;;;;5104526;28;20275;-78
2023/12/20 12:27:11;;;;;;;3.07;1.83;;;9.10;99.90;;;;;;5107093;28;20207;-78
2023/12/20 12:29:39;;;;;;;3.60;1.87;;;9.10;99.90;;;;;;5095488;28;20225;-78
2023/12/20 12:32:10;;;;;;;3.87;2.00;;;9.10;99.90;;;;;;5111650;27;20557;-78
2023/12/20 12:34:43;;;;;;;3.90;1.70;;;9.10;99.90;;;;;;5100527;28;20211;-79
2023/12/20 12:37:10;;;;;;;2.63;1.57;;;9.10;99.90;;;;;;5114978;27;20200;-79
2023/12/20 12:39:39;;;;;;;3.40;1.63;;;9.10;99.90;;;;;;5097158;28;20237;-79
2023/12/20 12:42:07;;;;;;;2.27;1.40;;;9.10;99.90;;;;;;5107881;28;20195;-79
2023/12/20 12:44:34;;;;;;;2.47;1.60;;;9.10;99.90;;;;;;5109574;28;20199;-78
2023/12/20 12:47:03;;;;;;;1.53;1.23;;;9.10;99.90;;;;;;5094829;28;20218;-77
2023/12/20 12:49:30;;;;;;;2.87;1.80;;;9.10;99.90;;;;;;5077794;28;20326;-77
2023/12/20 12:51:58;;;;;;;2.70;1.53;;;9.10;99.90;;;;;;5119756;27;20201;-77
2023/12/20 12:54:28;;;;;;;1.20;1.10;;;9.10;99.90;;;;;;5103080;28;20192;-78
2023/12/20 12:56:58;;;;;;;1.50;1.40;;;9.10;99.90;;;;;;5115509;27;20195;-78
2023/12/20 12:59:25;;;;;;;4.17;1.30;;;9.10;99.90;;;;;;5094202;28;20564;-78
2023/12/20 13:01:53;;;;;;;3.43;1.37;;;9.10;99.90;;;;;;5091231;28;20632;-78